Flight Track Log - Related Links

Times and Time Zones

All times are in EDT time to prevent confusion due to time zone crossing. See the N45NS flight status page for this flight to view local times or setup timezone preferences in your user account.

Time Position Orientation Groundspeed Altitude Reporting Facility
EDT Latitude Longitude Course Direction KTS MPH feet Rate Location/Type
Tue 08:24:48 AM 40.8125 -81.8725 North 221 254 4,900  Level Cleveland Center
Tue 08:25:48 AM 40.8489 -81.7744 64° Northeast 232 267 7,600 2,500 Climbing Cleveland Center
Tue 08:26:48 AM 40.8936 -81.6792 58° Northeast 266 306 9,900 2,300 Climbing Cleveland Center
Tue 08:27:48 AM 40.9383 -81.5808 59° Northeast 298 343 12,200 2,250 Climbing Cleveland Center
Tue 08:28:48 AM 40.9831 -81.4797 60° Northeast 308 354 14,400 2,150 Climbing Cleveland Center
Tue 08:29:00 AM 41.2490 -81.6780 North  Level Estimated
Tue 08:29:48 AM 41.0317 -81.3758 58° Northeast 319 367 16,500  Level Cleveland Center
Tue 08:30:48 AM 41.0783 -81.2661 61° Northeast 324 373 18,000 1,700 Climbing Cleveland Center
Tue 08:31:48 AM 41.1517 -81.1869 39° Northeast 335 386 19,900 1,750 Climbing Cleveland Center
Tue 08:32:48 AM 41.2456 -81.1547 14° North 328 377 21,500 1,500 Climbing Cleveland Center
Tue 08:33:48 AM 41.3439 -81.1225 14° North 349 402 22,900 750 Climbing Cleveland Center
Tue 08:34:48 AM 41.4481 -81.0872 14° North 372 428 23,000 50 Climbing Cleveland Center
Tue 08:35:48 AM 41.5589 -81.0494 14° North 392 451 23,000  Level Cleveland Center
Tue 08:36:48 AM 41.6672 -81.0139 14° North 392 451 23,000  Level Cleveland Center
Tue 08:37:48 AM 41.7781 -80.9758 14° North 398 458 23,000  Level Cleveland Center
Tue 08:38:48 AM 41.8739 -80.9400 16° North 398 458 23,000  Level Cleveland Center
Tue 08:39:48 AM 41.9844 -80.9044 13° North 393 452 23,000  Level Cleveland Center
Tue 08:40:48 AM 42.0908 -80.8658 15° North 400 460 23,000 -300 Level Cleveland Center
Tue 08:41:48 AM 42.2014 -80.8297 14° North 400 460 22,400 -1,350 Descending Cleveland Center
Tue 08:42:48 AM 42.3100 -80.7908 15° North 394 453 20,300 -2,000 Descending Cleveland Center
Tue 08:43:48 AM 42.4183 -80.7519 15° North 394 453 18,400 -1,850 Descending Cleveland Center
Tue 08:44:48 AM 42.5122 -80.6875 27° Northeast 378 435 16,600 -1,700 Descending Cleveland Center
Tue 08:45:48 AM 42.6144 -80.6228 25° Northeast 370 426 15,000 -1,700 Descending Cleveland Center
Tue 08:46:48 AM 42.7042 -80.5522 30° Northeast 365 420 13,200 -1,900 Descending Cleveland Center
Tue 08:47:48 AM 42.7958 -80.4956 24° Northeast 365 420 11,200 -2,000 Descending Cleveland Center
Tue 08:48:48 AM 42.8875 -80.4728 10° North 340 391 9,200 -1,875 Descending Cleveland Center
Tue 08:49:56 AM 42.9667 -80.4500 12° North 290 334 7,200 -1,453 Descending Toronto Center
Tue 08:50:56 AM 43.0500 -80.4333 North 280 322 6,100 -1,100 Descending Toronto Center
Tue 08:51:56 AM 43.1167 -80.3833 29° Northeast 280 322 5,000 -550 Descending Toronto Center
Tue 08:52:56 AM 43.1833 -80.3500 20° North 280 322 5,000  Level Toronto Center
Tue 08:53:56 AM 43.2500 -80.3000 29° Northeast 280 322 5,000 -550 Level Toronto Center
Tue 08:54:56 AM 43.3167 -80.2500 29° Northeast 280 322 3,900 -1,008 Descending Toronto Center
Tue 08:55:55 AM 43.3833 -80.2000 29° Northeast 270 311 3,000 -450 Descending Toronto Center
Tue 08:56:56 AM 43.4500 -80.1833 10° North 250 288 3,000  Level Toronto Center
Tue 08:57:56 AM 43.4833 -80.2333 313° West 200 230 3,000 -400 Level Toronto Center
Tue 08:58:56 AM 43.4833 -80.2833 270° West 150 173 2,200 -750 Descending Toronto Center
Tue 08:59:56 AM 43.4667 -80.3167 235° Southwest 120 138 1,500 -700 Descending Toronto Center

Login

Don't have an account? Register now (free) for customized features, flight alerts, and more!